РПИ Санкт-Петербург

РПИ Санкт-Петербург

РПИ Санкт-Петербург является структурным подразделением VATRUS.

В зону ответственности центра в сети VATSIM входит воздушное пространство над территориями Ленинградской, Новгородской, Псковской областей, Республики Карелия, а так же Вологодской области.

Руководитель РПИ

Timur Samarin

Инструкторы РПИ
Akhmadjon Saidov (Instructor)
Alexandr Vaganov * (Controller)
Alexey Kaznakov (Instructor)
Alexey Zimin (Instructor)
Nikita Assorov (Instructor)
Stanley Yorke * (Controller)
Timur Samarin * (Senior Student)
Vadim Drachev * (Controller)
Yury Koryagin (Instructor)
Входит в состав
ЗЦ Санкт-Петербург

Диспетчеры РПИ

Диспетчер Рейтинг Допуски *
Akhmadjon Saidov Instructor ULLL_CTR
Akmal Idrissov Senior Student ULLL_CTR *, ULLL_2_APP, ULLL_1_APP, ULLL_APP
Alexandr Vaganov Controller ULLL_CTR
Alexey Zimin Instructor ULLL_CTR
Ekaterina Romanova Controller ULLL_CTR *, ULLL_CTR, ULLL_CTR
Maxim Demidov Controller ULLL_CTR
Serafim Bedershtet Controller ULLL_CTR
Stanley Yorke Controller ULLL_CTR
Vadim Drachev Controller ULLL_CTR
Yury Koryagin Instructor ULLL_CTR
Aleksandr Manko Senior Student ULLL_APP, ULLL_2_APP, ULLL_1_APP
Aleksandr Mirtov Student ULLI_GND
Alexander Loginov Student 2 ULLI_2_TWR, ULLI_1_TWR, ULLI_TWR, ULLI_3_TWR
Arseny Sitnikov Student 2 ULLI_2_TWR, ULLI_1_TWR, ULLI_TWR, ULLI_3_TWR
Artem Badalov Student 2 ULLL_1_APP*, ULLL_APP*, ULLL_2_APP*
Daniil Dolgikh Student ULLI_GND
Daniil Kayruk Student 2 ULLI_3_TWR, ULLI_2_TWR, ULLI_1_TWR, ULLI_TWR
David Markarian Student 2 ULLI_TWR, ULLI_3_TWR, ULLI_2_TWR, ULLI_1_TWR
Dmitrii Ermakov Student 2 ULLI_3_TWR*, ULLI_2_TWR*, ULLI_1_TWR*, ULLI_TWR*
Johan Nasstrom Student 2 ULLL_2_APP*, ULLL_1_APP*, ULLL_APP*
Nikita Voytko Senior Student ULLL_1_APP, ULLL_APP, ULLL_2_APP
Pavel Romanov Student ULLI_GND
Sasha Klyucharev Student 2 ULLL_1_APP*, ULLL_APP*, ULLL_2_APP*
Sofya Belyaeva Student 2 ULLL_2_APP*, ULLL_1_APP*, ULLL_APP*
Timur Samarin Senior Student ULLL_2_APP, ULLL_1_APP, ULLL_APP
Vitalii Gerasimov Student ULLI_GND
Vitaliy Legkov Student ULLI_GND
Yan Stetsenko Student 2 ULLI_3_TWR, ULLI_2_TWR, ULLI_1_TWR, ULLI_R_APP*, ULLI_TWR
Yury Pushkaryov Student 2 ULLI_TWR, ULLI_3_TWR, ULLI_2_TWR, ULLI_1_TWR

Аэропорты РПИ

ICAO Город Название Погода
ULLI Санкт-Петербург Пулково ULLI 161730Z 22004MPS 7000 -SHSN BKN008 BKN016CB OVC035 M00/M01 Q0990 RESHSN R28L/520342 TEMPO 1200 SHRASN BKN007 BKN015CB
XLLV
ULPB Петрозаводск Бесовец ULPB 161700Z AUTO 21007MPS 170V230 9000 -SG ///016/// M01/M03 Q0985 RMK QFE735/0980
ULWC Череповец Череповец ULWC 161730Z 24004G09MPS 9999 DRSN BKN011 OVC020 M04/M06 Q0994 R21/490237 NOSIG RMK QFE736/0981